createdAt,value
2022-09-12T00:02:14.661Z,101802.59
2022-09-12T00:04:44.431Z,101804.02
2022-09-12T00:07:14.171Z,101801.05
2022-09-12T00:09:43.922Z,101805.97
2022-09-12T00:12:13.657Z,101803.67
2022-09-12T00:14:43.428Z,101798.95
2022-09-12T00:17:13.253Z,101795.89
2022-09-12T00:19:43.005Z,101795.89
2022-09-12T00:22:13.140Z,101794.96
2022-09-12T00:24:42.895Z,101795.58
2022-09-12T00:27:12.643Z,101788.62
2022-09-12T00:29:42.681Z,101780.67
2022-09-12T00:32:12.207Z,101780.16
2022-09-12T00:34:41.952Z,101789.63
2022-09-12T00:37:11.690Z,101780.55
2022-09-12T00:39:41.593Z,101786.73
2022-09-12T00:42:13.214Z,101782.37
2022-09-12T00:44:45.688Z,101779.78
2022-09-12T00:47:23.751Z,101776.01
2022-09-12T00:50:02.459Z,101770.84
2022-09-12T00:52:38.207Z,101769.29
2022-09-12T00:55:13.936Z,101764.97
2022-09-12T00:57:58.737Z,101760.92
2022-09-12T01:00:30.028Z,101760.92
2022-09-12T01:03:02.834Z,101759.36
2022-09-12T01:05:35.488Z,101753.64
2022-09-12T01:08:07.118Z,101751.94
2022-09-12T01:10:39.082Z,101747.94
2022-09-12T01:13:11.138Z,101742.89
2022-09-12T01:15:41.411Z,101751.86
2022-09-12T01:18:14.885Z,101742.45
2022-09-12T01:21:05.743Z,101744.67
2022-09-12T01:23:41.516Z,101742.59
2022-09-12T01:26:38.076Z,101738.55
2022-09-12T01:29:39.158Z,101733.90
2022-09-12T01:32:28.666Z,101733.90
2022-09-12T01:35:04.347Z,101730.75
2022-09-12T01:37:45.688Z,101728.00
2022-09-12T01:40:30.315Z,101731.89
2022-09-12T01:43:26.671Z,101728.92
2022-09-12T01:46:02.455Z,101722.59
2022-09-12T01:48:35.812Z,101728.09
2022-09-12T01:51:24.531Z,101722.28
2022-09-12T01:53:57.347Z,101717.72
2022-09-12T01:56:29.653Z,101720.06
2022-09-12T01:59:08.453Z,101717.85
2022-09-12T02:01:49.039Z,101714.80
2022-09-12T02:04:31.049Z,101718.70
2022-09-12T02:07:10.775Z,101708.14
2022-09-12T02:09:50.002Z,101709.52
2022-09-12T02:12:22.519Z,101697.38
2022-09-12T02:14:55.488Z,101700.34
2022-09-12T02:17:27.159Z,101702.88
2022-09-12T02:20:02.642Z,101693.55
2022-09-12T02:22:34.672Z,101695.06
2022-09-12T02:25:08.497Z,101692.72
2022-09-12T02:27:46.982Z,101692.41
2022-09-12T02:30:19.404Z,101689.36
2022-09-12T02:33:04.083Z,101683.86
2022-09-12T02:35:45.787Z,101683.02
2022-09-12T02:38:34.558Z,101678.70
2022-09-12T02:41:04.609Z,101670.46
2022-09-12T02:43:35.180Z,101683.48
2022-09-12T02:46:12.318Z,101687.16
2022-09-12T02:48:44.476Z,101688.95
2022-09-12T02:51:14.560Z,101682.48
2022-09-12T02:53:45.061Z,101688.32
2022-09-12T02:56:17.909Z,101686.20
2022-09-12T02:58:48.573Z,101667.72
2022-09-12T03:01:36.193Z,101667.72
2022-09-12T03:04:17.765Z,101672.16
2022-09-12T03:06:59.523Z,101668.68
2022-09-12T03:09:46.932Z,101672.25
2022-09-12T03:12:40.352Z,101667.19
2022-09-12T03:15:40.560Z,101661.82
2022-09-12T03:18:31.240Z,101671.44
2022-09-12T03:21:09.795Z,101666.34
2022-09-12T03:24:15.752Z,101667.81
2022-09-12T03:27:00.717Z,101668.78
2022-09-12T03:29:31.529Z,101665.91
2022-09-12T03:32:01.265Z,101660.11
2022-09-12T03:34:31.006Z,101660.02
2022-09-12T03:37:00.819Z,101658.20
2022-09-12T03:39:30.963Z,101659.48
2022-09-12T03:42:00.524Z,101660.76
2022-09-12T03:44:30.559Z,101651.02
2022-09-12T03:47:00.604Z,101651.86
2022-09-12T03:49:30.360Z,101653.98
2022-09-12T03:52:00.094Z,101646.59
2022-09-12T03:54:29.836Z,101649.55
2022-09-12T03:56:59.590Z,101651.42
2022-09-12T03:59:29.661Z,101646.81
2022-09-12T04:01:59.542Z,101647.44
2022-09-12T04:04:29.661Z,101646.06
2022-09-12T04:06:59.542Z,101645.66
2022-09-12T04:09:29.848Z,101645.31
2022-09-12T04:11:59.886Z,101640.03
2022-09-12T04:14:29.635Z,101638.26
2022-09-12T04:16:59.208Z,101635.20
2022-09-12T04:19:29.196Z,101632.64
2022-09-12T04:21:59.381Z,101631.27
2022-09-12T04:24:29.120Z,101635.07
2022-09-12T04:26:58.932Z,101635.59
2022-09-12T04:29:29.426Z,101633.25
2022-09-12T04:31:59.173Z,101629.75
2022-09-12T04:34:32.088Z,101635.78
2022-09-12T04:37:01.824Z,101634.63
2022-09-12T04:39:31.564Z,101632.02
2022-09-12T04:42:01.330Z,101635.02
2022-09-12T04:44:31.535Z,101625.63
2022-09-12T04:47:01.592Z,101625.86
2022-09-12T04:49:31.712Z,101627.98
2022-09-12T04:52:01.648Z,101628.99
2022-09-12T04:54:31.383Z,101627.21
2022-09-12T04:57:01.255Z,101622.66
2022-09-12T04:59:31.015Z,101614.23
2022-09-12T05:02:00.869Z,101614.23
2022-09-12T05:04:31.546Z,101623.23
2022-09-12T05:07:01.574Z,101624.86
2022-09-12T05:09:31.789Z,101626.83
2022-09-12T05:12:04.613Z,101622.20
2022-09-12T05:14:33.325Z,101625.47
2022-09-12T05:17:04.110Z,101625.47
2022-09-12T05:19:34.159Z,101626.22
2022-09-12T05:22:06.626Z,101628.13
2022-09-12T05:24:38.633Z,101627.24
2022-09-12T05:27:08.391Z,101631.95
2022-09-12T05:29:38.138Z,101632.86
2022-09-12T05:32:09.704Z,101630.21
2022-09-12T05:34:41.141Z,101628.92
2022-09-12T05:37:10.895Z,101625.85
2022-09-12T05:39:40.696Z,101625.85
2022-09-12T05:42:12.097Z,101630.11
2022-09-12T05:44:41.840Z,101633.10
2022-09-12T05:47:13.288Z,101625.37
2022-09-12T05:49:44.674Z,101625.09
2022-09-12T05:52:14.121Z,101626.61
2022-09-12T05:54:44.032Z,101632.02
2022-09-12T05:57:13.768Z,101632.93
2022-09-12T05:59:43.335Z,101629.75
2022-09-12T06:02:13.205Z,101635.00
2022-09-12T06:04:43.475Z,101635.38
2022-09-12T06:07:14.420Z,101635.17
2022-09-12T06:09:44.166Z,101637.50
2022-09-12T06:12:13.898Z,101641.11
2022-09-12T06:14:43.640Z,101635.98
2022-09-12T06:17:14.138Z,101645.05
2022-09-12T06:19:43.874Z,101647.19
2022-09-12T06:22:13.906Z,101646.30
2022-09-12T06:24:43.680Z,101646.45
2022-09-12T06:27:13.228Z,101651.31
2022-09-12T06:29:42.972Z,101637.62
2022-09-12T06:32:12.714Z,101636.18
2022-09-12T06:34:42.823Z,101635.66
2022-09-12T06:37:12.637Z,101636.05
2022-09-12T06:39:42.731Z,101627.70
2022-09-12T06:42:13.836Z,101627.70
2022-09-12T06:44:45.348Z,101642.61
2022-09-12T06:47:15.108Z,101637.75
2022-09-12T06:49:44.850Z,101634.10
2022-09-12T06:52:14.304Z,101636.81
2022-09-12T06:54:44.052Z,101636.13
2022-09-12T06:57:13.804Z,101639.21
2022-09-12T06:59:43.543Z,101633.46
2022-09-12T07:02:13.429Z,101612.84
2022-09-12T07:04:43.343Z,101612.84
2022-09-12T07:07:13.099Z,101630.80
2022-09-12T07:09:42.853Z,101624.25
2022-09-12T07:12:12.527Z,101632.33
2022-09-12T07:14:42.282Z,101630.95
2022-09-12T07:17:12.423Z,101612.05
2022-09-12T07:19:42.131Z,101615.84
2022-09-12T07:22:12.239Z,101617.17
2022-09-12T07:24:41.992Z,101608.02
2022-09-12T07:27:11.737Z,101608.55
2022-09-12T07:29:41.212Z,101614.84
2022-09-12T07:32:12.017Z,101588.57
2022-09-12T07:34:41.828Z,101588.57
2022-09-12T07:37:11.649Z,101591.95
2022-09-12T07:39:41.766Z,101591.95
2022-09-12T07:42:12.522Z,101597.66
2022-09-12T07:44:42.335Z,101597.66
2022-09-12T07:47:12.092Z,101615.77
2022-09-12T07:49:41.850Z,101615.70
2022-09-12T07:52:11.774Z,101618.42
2022-09-12T07:54:41.529Z,101601.14
2022-09-12T07:57:11.331Z,101601.14
2022-09-12T07:59:52.606Z,101622.95
2022-09-12T08:02:17.272Z,101614.94
2022-09-12T08:04:45.998Z,101616.41
2022-09-12T08:07:15.823Z,101611.89
2022-09-12T08:09:46.111Z,101612.86
2022-09-12T08:12:17.682Z,101610.31
2022-09-12T08:14:48.153Z,101617.82
2022-09-12T08:17:17.927Z,101618.88
2022-09-12T08:19:48.151Z,101625.06
2022-09-12T08:22:19.535Z,101622.94
2022-09-12T08:24:50.785Z,101623.07
2022-09-12T08:27:20.623Z,101629.22
2022-09-12T08:29:50.389Z,101626.72
2022-09-12T08:32:20.297Z,101627.06
2022-09-12T08:34:50.064Z,101627.45
2022-09-12T08:37:19.952Z,101623.67
2022-09-12T08:39:49.781Z,101618.81
2022-09-12T08:42:23.939Z,101622.96
2022-09-12T08:45:05.210Z,101624.41
2022-09-12T08:47:40.560Z,101628.98
2022-09-12T08:50:18.625Z,101625.73
2022-09-12T08:53:07.306Z,101622.02
2022-09-12T08:56:03.782Z,101628.23
2022-09-12T08:58:36.647Z,101617.39
2022-09-12T09:01:18.252Z,101619.08
2022-09-12T09:04:03.198Z,101613.55
2022-09-12T09:06:59.180Z,101618.41
2022-09-12T09:09:55.673Z,101617.46
2022-09-12T09:12:43.122Z,101617.37
2022-09-12T09:15:27.794Z,101617.95
2022-09-12T09:18:04.119Z,101611.23
2022-09-12T09:20:43.506Z,101610.25
2022-09-12T09:23:37.582Z,101609.97
2022-09-12T09:26:11.441Z,101602.13
2022-09-12T09:28:53.170Z,101610.11
2022-09-12T09:31:25.365Z,101604.44
2022-09-12T09:33:56.148Z,101594.36
2022-09-12T09:36:28.726Z,101570.72
2022-09-12T09:39:18.624Z,101570.72
2022-09-12T09:42:14.802Z,101566.65
2022-09-12T09:44:47.256Z,101561.06
2022-09-12T09:47:19.610Z,101561.06
2022-09-12T09:49:49.366Z,101575.03
2022-09-12T09:52:22.152Z,101574.78
2022-09-12T09:54:55.056Z,101577.28
2022-09-12T09:57:40.861Z,101570.59
2022-09-12T10:00:25.470Z,101564.95
2022-09-12T10:03:31.365Z,101568.33
2022-09-12T10:06:08.888Z,101563.52
2022-09-12T10:08:39.235Z,101559.67
2022-09-12T10:11:17.626Z,101557.75
2022-09-12T10:13:57.738Z,101550.47
2022-09-12T10:16:30.505Z,101548.37
2022-09-12T10:19:02.674Z,101546.28
2022-09-12T10:21:41.632Z,101546.48
2022-09-12T10:24:43.566Z,101545.61
2022-09-12T10:27:16.917Z,101536.19
2022-09-12T10:29:52.446Z,101532.42
2022-09-12T10:32:31.049Z,101533.38
2022-09-12T10:35:03.967Z,101525.32
2022-09-12T10:37:41.128Z,101525.36
2022-09-12T10:40:24.893Z,101522.36
2022-09-12T10:42:57.079Z,101522.36
2022-09-12T10:45:32.679Z,101518.20
2022-09-12T10:48:07.742Z,101512.01
2022-09-12T10:50:42.961Z,101508.14
2022-09-12T10:53:34.355Z,101502.78
2022-09-12T10:56:04.657Z,101498.54
2022-09-12T10:58:42.689Z,101497.62
2022-09-12T11:01:24.156Z,101496.86
2022-09-12T11:04:21.087Z,101486.34
2022-09-12T11:07:11.851Z,101486.47
2022-09-12T11:09:47.058Z,101467.97
2022-09-12T11:12:25.408Z,101467.97
2022-09-12T11:15:17.066Z,101482.51
2022-09-12T11:17:49.848Z,101475.86
2022-09-12T11:20:34.226Z,101454.05
2022-09-12T11:23:22.062Z,101454.05
2022-09-12T11:26:03.571Z,101469.50
2022-09-12T11:28:47.094Z,101468.30
2022-09-12T11:31:45.988Z,101462.29
2022-09-12T11:34:18.758Z,101463.61
2022-09-12T11:36:54.352Z,101461.59
2022-09-12T11:39:26.767Z,101452.77
2022-09-12T11:42:02.375Z,101456.49
2022-09-12T11:44:40.549Z,101455.62
2022-09-12T11:47:13.453Z,101459.61
2022-09-12T11:49:49.085Z,101466.47
2022-09-12T11:52:21.605Z,101461.97
2022-09-12T11:55:03.777Z,101472.79
2022-09-12T11:57:44.489Z,101476.68
2022-09-12T12:00:20.418Z,101469.69
2022-09-12T12:03:11.203Z,101467.52
2022-09-12T12:05:58.210Z,101469.20
2022-09-12T12:08:30.989Z,101446.83
2022-09-12T12:11:05.588Z,101446.83
2022-09-12T12:13:39.296Z,101462.07
2022-09-12T12:16:26.060Z,101462.22
2022-09-12T12:18:58.587Z,101459.79
2022-09-12T12:21:49.286Z,101450.03
2022-09-12T12:24:24.414Z,101457.86
2022-09-12T12:27:06.082Z,101449.73
2022-09-12T12:29:45.838Z,101423.79
2022-09-12T12:32:21.003Z,101423.79
2022-09-12T12:34:50.612Z,101439.67
2022-09-12T12:37:23.391Z,101431.72
2022-09-12T12:40:00.227Z,101436.19
2022-09-12T12:42:38.891Z,101438.46
2022-09-12T12:45:12.090Z,101436.66
2022-09-12T12:47:45.249Z,101423.91
2022-09-12T12:50:23.282Z,101419.28
2022-09-12T12:52:56.165Z,101420.68
2022-09-12T12:55:40.649Z,101420.23
2022-09-12T12:58:31.641Z,101415.09
2022-09-12T13:01:16.778Z,101399.80
2022-09-12T13:03:49.933Z,101413.13
2022-09-12T13:06:28.304Z,101379.22
2022-09-12T13:09:06.550Z,101379.22
2022-09-12T13:11:42.023Z,101391.39
2022-09-12T13:14:46.726Z,101384.37
2022-09-12T13:17:22.621Z,101387.81
2022-09-12T13:20:16.940Z,101391.36
2022-09-12T13:22:26.263Z,101394.13
2022-09-12T13:24:56.009Z,101379.66
2022-09-12T13:27:26.885Z,101368.73
2022-09-12T13:30:11.754Z,101359.09
2022-09-12T13:32:42.949Z,101377.41
2022-09-12T13:35:34.550Z,101372.06
2022-09-12T13:38:18.674Z,101361.30
2022-09-12T13:41:24.020Z,101358.50
2022-09-12T13:43:53.906Z,101343.05
2022-09-12T13:46:30.261Z,101348.99
2022-09-12T13:49:02.839Z,101354.88
2022-09-12T13:51:33.667Z,101345.87
2022-09-12T13:54:06.410Z,101343.40
2022-09-12T13:56:39.206Z,101338.20
2022-09-12T13:59:13.328Z,101335.41
2022-09-12T14:01:45.161Z,101328.02
2022-09-12T14:04:41.317Z,101328.09
2022-09-12T14:07:20.124Z,101322.30
2022-09-12T14:10:00.834Z,101328.23
2022-09-12T14:12:40.990Z,101324.50
2022-09-12T14:15:23.674Z,101320.66
2022-09-12T14:17:56.540Z,101316.22
2022-09-12T14:20:26.104Z,101320.41
2022-09-12T14:22:56.105Z,101315.73
2022-09-12T14:25:27.763Z,101321.34
2022-09-12T14:27:59.004Z,101320.04
2022-09-12T14:30:37.143Z,101321.82
2022-09-12T14:33:16.007Z,101321.66
2022-09-12T14:35:53.717Z,101314.95
2022-09-12T14:38:29.265Z,101305.74
2022-09-12T14:41:01.909Z,101303.10
2022-09-12T14:43:36.943Z,101298.23
2022-09-12T14:46:21.368Z,101298.25
2022-09-12T14:48:54.318Z,101288.89
2022-09-12T14:51:29.743Z,101283.61
2022-09-12T14:53:59.567Z,101286.94
2022-09-12T14:56:46.667Z,101275.50
2022-09-12T14:59:36.261Z,101282.32
2022-09-12T15:02:16.854Z,101284.94
2022-09-12T15:04:48.941Z,101258.58
2022-09-12T15:07:24.696Z,101258.58
2022-09-12T15:09:54.436Z,101271.45
2022-09-12T15:12:25.119Z,101265.45
2022-09-12T15:14:57.903Z,101266.12
2022-09-12T15:17:27.637Z,101268.45
2022-09-12T15:19:57.679Z,101263.17
2022-09-12T15:22:27.674Z,101260.42
2022-09-12T15:24:57.484Z,101262.30
2022-09-12T15:27:27.475Z,101262.11
2022-09-12T15:29:57.288Z,101261.98
2022-09-12T15:32:29.448Z,101262.24
2022-09-12T15:34:59.213Z,101257.23
2022-09-12T15:37:28.941Z,101263.61
2022-09-12T15:39:58.734Z,101255.95
2022-09-12T15:42:31.272Z,101253.36
2022-09-12T15:45:02.716Z,101244.11
2022-09-12T15:47:32.713Z,101244.11
2022-09-12T15:50:02.452Z,101224.84
2022-09-12T15:52:33.048Z,101224.84
2022-09-12T15:55:03.192Z,101238.62
2022-09-12T15:57:32.925Z,101242.98
2022-09-12T16:00:02.791Z,101244.80
2022-09-12T16:02:34.276Z,101233.36
2022-09-12T16:05:04.674Z,101231.05
2022-09-12T16:07:34.449Z,101225.58
2022-09-12T16:10:06.695Z,101218.50
2022-09-12T16:12:36.422Z,101213.16
2022-09-12T16:15:08.232Z,101219.77
2022-09-12T16:17:37.969Z,101214.64
2022-09-12T16:20:10.000Z,101213.51
2022-09-12T16:22:40.184Z,101209.49
2022-09-12T16:25:10.807Z,101215.22
2022-09-12T16:27:40.602Z,101204.33
2022-09-12T16:30:13.335Z,101204.59
2022-09-12T16:32:43.060Z,101198.48
2022-09-12T16:35:12.829Z,101201.62
2022-09-12T16:37:42.430Z,101204.94
2022-09-12T16:40:15.736Z,101200.92
2022-09-12T16:42:48.726Z,101193.72
2022-09-12T16:45:18.166Z,101182.33
2022-09-12T16:47:47.907Z,101184.53
2022-09-12T16:50:17.408Z,101183.72
2022-09-12T16:52:47.140Z,101189.19
2022-09-12T16:55:16.987Z,101186.27
2022-09-12T16:57:48.460Z,101187.22
2022-09-12T17:00:18.176Z,101185.06
2022-09-12T17:02:48.336Z,101184.48
2022-09-12T17:05:18.157Z,101179.13
2022-09-12T17:07:47.969Z,101183.69
2022-09-12T17:10:17.961Z,101182.87
2022-09-12T17:12:47.708Z,101183.84
2022-09-12T17:15:17.790Z,101185.76
2022-09-12T17:17:47.679Z,101153.45
2022-09-12T17:20:17.576Z,101153.45
2022-09-12T17:22:47.292Z,101164.77
2022-09-12T17:25:17.141Z,101142.92
2022-09-12T17:27:46.852Z,101154.39
2022-09-12T17:30:16.836Z,101159.07
2022-09-12T17:32:46.579Z,101154.66
2022-09-12T17:35:16.711Z,101148.28
2022-09-12T17:37:46.724Z,101151.40
2022-09-12T17:40:16.350Z,101147.81
2022-09-12T17:42:46.134Z,101146.62
2022-09-12T17:45:18.421Z,101138.34
2022-09-12T17:47:47.597Z,101130.23
2022-09-12T17:50:39.299Z,101131.17
2022-09-12T17:52:51.830Z,101136.52
2022-09-12T17:55:21.418Z,101138.05
2022-09-12T17:57:51.134Z,101132.72
2022-09-12T18:00:22.427Z,101134.33
2022-09-12T18:02:52.199Z,101143.50
2022-09-12T18:05:21.780Z,101136.23
2022-09-12T18:07:52.882Z,101141.61
2022-09-12T18:10:22.784Z,101149.52
2022-09-12T18:12:52.673Z,101152.56
2022-09-12T18:15:22.581Z,101157.37
2022-09-12T18:17:52.602Z,101150.16
2022-09-12T18:20:22.057Z,101164.47
2022-09-12T18:22:51.800Z,101164.47
2022-09-12T18:25:21.598Z,101157.80
2022-09-12T18:27:51.393Z,101153.88
2022-09-12T18:30:22.570Z,101162.80
2022-09-12T18:32:52.607Z,101159.18
2022-09-12T18:35:22.040Z,101155.31
2022-09-12T18:37:51.769Z,101156.45
2022-09-12T18:40:21.308Z,101166.19
2022-09-12T18:42:51.490Z,101160.09
2022-09-12T18:45:21.505Z,101157.87
2022-09-12T18:47:51.267Z,101154.58
2022-09-12T18:50:20.986Z,101154.58
2022-09-12T18:52:55.659Z,101172.09
2022-09-12T18:55:24.432Z,101168.44
2022-09-12T18:57:55.747Z,101174.59
2022-09-12T19:00:25.515Z,101167.88
2022-09-12T19:02:55.225Z,101172.87
2022-09-12T19:05:25.932Z,101175.68
2022-09-12T19:07:55.662Z,101181.47
2022-09-12T19:10:25.765Z,101177.58
2022-09-12T19:12:55.571Z,101168.69
2022-09-12T19:15:25.286Z,101174.79
2022-09-12T19:17:55.012Z,101173.63
2022-09-12T19:20:24.457Z,101163.55
2022-09-12T19:22:54.188Z,101157.69
2022-09-12T19:25:24.012Z,101164.94
2022-09-12T19:27:53.728Z,101149.97
2022-09-12T19:30:23.811Z,101144.66
2022-09-12T19:32:53.532Z,101135.80
2022-09-12T19:35:22.967Z,101138.28
2022-09-12T19:37:52.775Z,101138.28
2022-09-12T19:40:22.622Z,101130.72
2022-09-12T19:42:52.346Z,101128.46
2022-09-12T19:45:22.069Z,101123.19
2022-09-12T19:47:51.869Z,101120.10
2022-09-12T19:50:21.573Z,101111.22
2022-09-12T19:52:51.679Z,101107.95
2022-09-12T19:55:22.162Z,101127.00
2022-09-12T19:57:51.882Z,101130.09
2022-09-12T20:00:22.288Z,101129.68
2022-09-12T20:02:53.248Z,101121.41
2022-09-12T20:05:22.765Z,101121.41
2022-09-12T20:07:52.213Z,101124.54
2022-09-12T20:10:21.956Z,101124.27
2022-09-12T20:12:51.749Z,101114.14
2022-09-12T20:15:21.184Z,101114.43
2022-09-12T20:17:56.130Z,101111.41
2022-09-12T20:20:26.506Z,101106.70
2022-09-12T20:22:56.237Z,101114.47
2022-09-12T20:25:25.676Z,101114.98
2022-09-12T20:27:59.920Z,101107.77
2022-09-12T20:30:27.232Z,101105.82
2022-09-12T20:32:56.954Z,101103.88
2022-09-12T20:35:26.691Z,101097.97
2022-09-12T20:37:56.706Z,101102.05
2022-09-12T20:40:26.510Z,101097.97
2022-09-12T20:42:56.265Z,101101.86
2022-09-12T20:45:25.760Z,101090.84
2022-09-12T20:47:55.766Z,101084.73
2022-09-12T20:50:25.936Z,101064.20
2022-09-12T20:52:55.661Z,101064.20
2022-09-12T20:55:26.433Z,101082.89
2022-09-12T20:57:56.165Z,101093.98
2022-09-12T21:00:25.929Z,101082.52
2022-09-12T21:02:55.768Z,101081.61
2022-09-12T21:05:25.236Z,101080.39
2022-09-12T21:07:54.982Z,101089.04
2022-09-12T21:10:24.730Z,101079.48
2022-09-12T21:12:54.626Z,101092.83
2022-09-12T21:15:24.053Z,101087.02
2022-09-12T21:17:53.942Z,101093.17
2022-09-12T21:20:23.587Z,101092.49
2022-09-12T21:22:53.320Z,101092.14
2022-09-12T21:25:22.763Z,101099.15
2022-09-12T21:27:52.508Z,101110.37
2022-09-12T21:30:22.543Z,101117.64
2022-09-12T21:32:52.264Z,101107.81
2022-09-12T21:35:22.010Z,101104.42
2022-09-12T21:37:53.173Z,101108.03
2022-09-12T21:40:23.073Z,101101.52
2022-09-12T21:42:52.799Z,101098.72
2022-09-12T21:45:22.236Z,101095.95
2022-09-12T21:47:51.973Z,101095.13
2022-09-12T21:50:21.702Z,101092.02
2022-09-12T21:52:51.745Z,101091.73
2022-09-12T21:55:22.862Z,101087.56
2022-09-12T21:57:52.607Z,101094.51
2022-09-12T22:00:22.644Z,101104.34
2022-09-12T22:02:53.660Z,101109.06
2022-09-12T22:05:24.529Z,101113.16
2022-09-12T22:07:54.587Z,101114.48
2022-09-12T22:10:25.005Z,101115.55
2022-09-12T22:12:54.752Z,101115.22
2022-09-12T22:15:40.232Z,101115.72
2022-09-12T22:17:56.678Z,101113.50
2022-09-12T22:20:26.509Z,101111.47
2022-09-12T22:23:13.686Z,101116.74
2022-09-12T22:25:43.482Z,101119.09
2022-09-12T22:28:13.674Z,101112.50
2022-09-12T22:30:46.453Z,101111.28
2022-09-12T22:33:16.270Z,101108.83
2022-09-12T22:35:46.000Z,101109.45
2022-09-12T22:38:15.742Z,101101.70
2022-09-12T22:40:45.479Z,101097.53
2022-09-12T22:43:15.676Z,101088.71
2022-09-12T22:45:45.413Z,101073.69
2022-09-12T22:48:16.797Z,101073.69
2022-09-12T22:53:23.799Z,101090.89
2022-09-12T22:55:53.611Z,101097.53
2022-09-12T22:58:23.056Z,101093.98
2022-09-12T23:00:52.959Z,101091.17
2022-09-12T23:03:22.787Z,101087.56
2022-09-12T23:05:52.578Z,101081.34
2022-09-12T23:08:22.191Z,101079.73
2022-09-12T23:10:51.680Z,101078.41
2022-09-12T23:13:21.441Z,101073.85
2022-09-12T23:15:56.235Z,101054.05
2022-09-12T23:18:26.079Z,101054.05
2022-09-12T23:21:03.213Z,101072.42
2022-09-12T23:23:33.655Z,101063.19
2022-09-12T23:26:15.122Z,101060.44
2022-09-12T23:28:50.639Z,101062.36
2022-09-12T23:31:21.451Z,101057.45
2022-09-12T23:33:56.260Z,101050.39
2022-09-12T23:36:27.107Z,101045.94
2022-09-12T23:38:57.288Z,101043.99
2022-09-12T23:41:27.159Z,101041.34
2022-09-12T23:43:57.237Z,101042.62
2022-09-12T23:46:27.356Z,101040.58
2022-09-12T23:48:57.111Z,101040.02
2022-09-12T23:51:27.069Z,101039.66
2022-09-12T23:53:56.818Z,101032.70
2022-09-12T23:56:26.808Z,101040.02
2022-09-12T23:58:56.540Z,101038.62
